Time;durP1;ratioP1;P1;durP2;ratioP2;P2;SDS_P1;SDS_P2;PMS_P1;PMS_P2;Temp;Humidity;BMP_temperature;BMP_pressure;BME280_temperature;BME280_humidity;BME280_pressure;Samples;Min_cycle;Max_cycle;Signal;HPM_P1;HPM_P2
2022/12/21 00:02:03;;;;;;;154.60;89.60;;;;;;;-2.81;100.00;99190.55;106195;1288;58935;-87
2022/12/21 00:04:29;;;;;;;158.00;91.00;;;;;;;-2.78;100.00;99184.27;106207;1281;59173;-87
2022/12/21 00:06:56;;;;;;;147.20;84.90;;;;;;;-2.79;100.00;99182.19;106173;1281;58818;-85
2022/12/21 00:09:22;;;;;;;150.00;88.90;;;;;;;-2.79;100.00;99188.45;106177;1288;58756;-86
2022/12/21 00:11:49;;;;;;;152.50;88.90;;;;;;;-2.80;100.00;99195.93;106008;1284;58867;-85
2022/12/21 00:14:16;;;;;;;146.70;85.60;;;;;;;-2.80;100.00;99200.98;106159;1281;59380;-87
2022/12/21 00:16:43;;;;;;;152.10;87.10;;;;;;;-2.81;100.00;99194.36;106164;1287;62764;-88
2022/12/21 00:19:14;;;;;;;146.20;85.80;;;;;;;-2.79;100.00;99194.36;106149;1288;59020;-87
2022/12/21 00:21:40;;;;;;;143.50;83.20;;;;;;;-2.77;100.00;99188.95;105988;1292;58936;-86
2022/12/21 00:24:06;;;;;;;150.30;88.70;;;;;;;-2.73;100.00;99192.55;106088;1276;58821;-87
2022/12/21 00:26:35;;;;;;;142.50;87.50;;;;;;;-2.71;100.00;99193.23;106148;1282;58995;-87
2022/12/21 00:29:02;;;;;;;144.00;84.00;;;;;;;-2.70;100.00;99194.43;106123;1289;63946;-86
2022/12/21 00:31:34;;;;;;;146.50;87.20;;;;;;;-2.69;100.00;99196.69;106127;1280;58879;-87
2022/12/21 00:34:00;;;;;;;145.20;86.90;;;;;;;-2.70;100.00;99193.05;106014;1288;58718;-86
2022/12/21 00:36:27;;;;;;;142.90;85.20;;;;;;;-2.69;100.00;99187.64;106153;1288;59015;-86
2022/12/21 00:38:56;;;;;;;143.30;85.20;;;;;;;-2.66;100.00;99186.57;105225;1284;1003075;-87
2022/12/21 00:41:24;;;;;;;133.30;83.50;;;;;;;-2.66;100.00;99185.70;106133;1288;64297;-87
2022/12/21 00:43:52;;;;;;;130.30;78.90;;;;;;;-2.64;100.00;99186.89;106134;1282;58881;-86
2022/12/21 00:46:31;;;;;;;129.10;76.90;;;;;;;-2.62;100.00;99184.80;106181;1281;59091;-87
2022/12/21 00:48:59;;;;;;;143.80;78.20;;;;;;;-2.59;100.00;99173.80;106187;1288;65819;-88
2022/12/21 00:51:26;;;;;;;126.10;75.20;;;;;;;-2.56;100.00;99168.90;106183;1288;58971;-84
2022/12/21 00:53:54;;;;;;;128.10;76.20;;;;;;;-2.53;100.00;99171.48;106160;1280;64007;-86
2022/12/21 00:56:21;;;;;;;128.90;73.00;;;;;;;-2.50;100.00;99178.74;106013;1291;58870;-88
2022/12/21 00:58:48;;;;;;;128.90;72.80;;;;;;;-2.46;100.00;99176.95;106212;1275;58970;-87
2022/12/21 01:01:20;;;;;;;141.00;82.70;;;;;;;-2.44;100.00;99180.23;106238;1288;65931;-87
2022/12/21 01:03:46;;;;;;;129.60;74.60;;;;;;;-2.40;100.00;99183.50;106199;1281;59415;-86
2022/12/21 01:06:15;;;;;;;139.30;79.40;;;;;;;-2.35;100.00;99179.45;106216;1281;64015;-84
2022/12/21 01:08:42;;;;;;;136.70;77.80;;;;;;;-2.31;100.00;99169.65;106055;1290;58830;-86
2022/12/21 01:11:09;;;;;;;134.90;75.60;;;;;;;-2.28;100.00;99160.73;106221;1279;58756;-87
2022/12/21 01:13:37;;;;;;;123.80;72.10;;;;;;;-2.24;100.00;99155.46;105952;1285;65959;-86
2022/12/21 01:16:05;;;;;;;122.90;72.50;;;;;;;-2.24;100.00;99152.49;106061;1284;59898;-85
2022/12/21 01:18:31;;;;;;;120.00;72.20;;;;;;;-2.27;100.00;99146.80;106198;1288;64026;-85
2022/12/21 01:20:58;;;;;;;128.70;75.10;;;;;;;-2.27;100.00;99150.98;106001;1276;58911;-87
2022/12/21 01:23:24;;;;;;;137.30;81.90;;;;;;;-2.27;100.00;99157.23;106178;1275;58845;-86
2022/12/21 01:25:50;;;;;;;128.50;80.10;;;;;;;-2.28;100.00;99159.86;106204;1281;58986;-87
2022/12/21 01:28:17;;;;;;;137.80;83.90;;;;;;;-2.27;100.00;99157.60;106012;1284;59476;-86
2022/12/21 01:30:44;;;;;;;132.30;80.60;;;;;;;-2.25;100.00;99155.65;106206;1285;59127;-84
2022/12/21 01:33:15;;;;;;;136.30;79.90;;;;;;;-2.25;100.00;99140.34;105984;1284;58978;-86
2022/12/21 01:35:43;;;;;;;128.60;82.80;;;;;;;-2.26;100.00;99132.19;106169;1280;58847;-86
2022/12/21 01:38:10;;;;;;;127.20;79.00;;;;;;;-2.27;100.00;99122.43;106011;1284;66020;-87
2022/12/21 01:40:36;;;;;;;129.90;75.00;;;;;;;-2.27;100.00;99111.13;106017;1284;69327;-87
2022/12/21 01:43:16;;;;;;;128.00;77.00;;;;;;;-2.28;100.00;99113.05;105956;1291;58908;-86
2022/12/21 01:45:42;;;;;;;124.60;74.80;;;;;;;-2.32;100.00;99118.51;106122;1288;58930;-87
2022/12/21 01:48:15;;;;;;;129.70;74.80;;;;;;;-2.40;100.00;99118.78;106202;1275;58790;-85
2022/12/21 01:50:51;;;;;;;128.10;75.10;;;;;;;-2.48;100.00;99128.61;106411;1281;64608;-85
2022/12/21 01:53:30;;;;;;;133.50;76.70;;;;;;;-2.54;100.00;99135.65;106266;1281;58840;-86
2022/12/21 01:55:59;;;;;;;125.00;73.40;;;;;;;-2.58;100.00;99118.99;106137;1288;62719;-88
2022/12/21 01:58:28;;;;;;;131.50;76.50;;;;;;;-2.59;100.00;99102.14;106139;1288;59152;-87
2022/12/21 02:00:57;;;;;;;129.40;76.90;;;;;;;-2.59;100.00;99114.31;106124;1285;58832;-87
2022/12/21 02:03:29;;;;;;;129.70;79.70;;;;;;;-2.60;100.00;99123.73;106161;1285;65253;-88
2022/12/21 02:06:08;;;;;;;126.00;76.50;;;;;;;-2.64;100.00;99130.54;105833;1285;60224;-88
2022/12/21 02:08:35;;;;;;;123.10;75.00;;;;;;;-2.66;100.00;99134.91;106125;1289;64022;-88
2022/12/21 02:11:02;;;;;;;126.00;72.90;;;;;;;-2.67;100.00;99114.24;106141;1288;59006;-88
2022/12/21 02:13:28;;;;;;;123.30;77.00;;;;;;;-2.70;100.00;99104.72;106141;1288;58797;-88
2022/12/21 02:16:00;;;;;;;125.90;75.10;;;;;;;-2.75;100.00;99115.02;106134;1281;59222;-88
2022/12/21 02:19:03;;;;;;;122.40;71.80;;;;;;;-2.79;100.00;99115.59;106119;1281;59183;-88
2022/12/21 02:22:02;;;;;;;119.30;70.70;;;;;;;-2.83;100.00;99130.42;106131;1287;64178;-89
2022/12/21 02:24:53;;;;;;;119.60;74.10;;;;;;;-2.89;100.00;99115.53;105649;1295;59047;-88
2022/12/21 02:27:28;;;;;;;121.00;71.80;;;;;;;-2.92;100.00;99116.41;104993;1303;58980;-88
2022/12/21 02:30:06;;;;;;;113.10;69.30;;;;;;;-2.92;100.00;99120.95;105008;1303;66045;-88
2022/12/21 02:32:58;;;;;;;122.60;74.80;;;;;;;-2.93;100.00;99113.82;104603;1303;58916;-87
2022/12/21 02:35:29;;;;;;;119.70;71.10;;;;;;;-2.95;100.00;99094.91;105029;1302;64405;-88
2022/12/21 02:38:04;;;;;;;119.90;75.90;;;;;;;-2.98;100.00;99087.98;104985;1303;59061;-87
2022/12/21 02:40:45;;;;;;;123.30;71.70;;;;;;;-3.05;100.00;99072.77;105030;1295;58770;-87
2022/12/21 02:46:33;;;;;;;120.30;72.10;;;;;;;-3.22;100.00;99073.46;105032;1296;59033;-88
2022/12/21 02:49:04;;;;;;;113.70;69.30;;;;;;;-3.34;100.00;99072.89;104891;1298;62610;-87
2022/12/21 02:51:43;;;;;;;120.80;71.30;;;;;;;-3.41;100.00;99063.23;105021;1304;59255;-88
2022/12/21 02:54:12;;;;;;;107.40;63.80;;;;;;;-3.48;100.00;99083.45;104966;1303;59008;-89
2022/12/21 02:56:37;;;;;;;109.20;64.50;;;;;;;-3.57;100.00;99087.88;105021;1304;65509;-86
2022/12/21 02:59:07;;;;;;;110.10;63.60;;;;;;;-3.62;100.00;99079.40;105042;1287;58879;-86
2022/12/21 03:01:42;;;;;;;110.10;66.40;;;;;;;-3.61;100.00;99096.75;105329;1291;64052;-86
2022/12/21 03:04:50;;;;;;;112.40;64.80;;;;;;;-3.59;100.00;99094.83;105761;1289;58999;-87
2022/12/21 03:07:23;;;;;;;117.60;67.40;;;;;;;-3.55;100.00;99087.16;106168;1288;58712;-88
2022/12/21 03:10:05;;;;;;;117.30;67.40;;;;;;;-3.53;100.00;99086.27;106165;1281;67088;-86
2022/12/21 03:13:09;;;;;;;119.90;70.40;;;;;;;-3.55;100.00;99077.42;106114;1277;59864;-85
2022/12/21 03:15:53;;;;;;;112.30;65.60;;;;;;;-3.61;100.00;99082.69;105934;1285;62432;-86
2022/12/21 03:18:30;;;;;;;115.10;67.70;;;;;;;-3.67;100.00;99081.17;106189;1288;58897;-87
2022/12/21 03:21:16;;;;;;;108.40;61.10;;;;;;;-3.72;100.00;99078.96;105811;1294;58929;-87
2022/12/21 03:24:27;;;;;;;98.60;58.50;;;;;;;-3.75;100.00;99086.96;106150;1288;66874;-87
2022/12/21 03:27:01;;;;;;;100.40;57.20;;;;;;;-3.75;100.00;99095.12;105592;1297;60708;-87
2022/12/21 03:29:33;;;;;;;106.40;64.90;;;;;;;-3.74;100.00;99101.02;105633;1294;65234;-86
2022/12/21 03:32:09;;;;;;;99.80;59.90;;;;;;;-3.78;100.00;99102.27;104911;1293;1002560;-87
2022/12/21 03:34:39;;;;;;;105.50;64.60;;;;;;;-3.79;100.00;99103.66;105648;1284;58198;-87
2022/12/21 03:37:14;;;;;;;104.30;58.90;;;;;;;-3.80;100.00;99099.68;105530;1294;65822;-87
2022/12/21 03:39:45;;;;;;;92.20;52.70;;;;;;;-3.80;100.00;99095.17;105660;1287;61237;-87
2022/12/21 03:42:23;;;;;;;95.10;55.80;;;;;;;-3.78;100.00;99094.45;105574;1281;64893;-86
2022/12/21 03:45:15;;;;;;;109.30;62.00;;;;;;;-3.75;100.00;99094.95;105633;1297;58904;-86
2022/12/21 03:47:58;;;;;;;85.30;49.20;;;;;;;-3.75;100.00;99092.86;105160;1302;58948;-86
2022/12/21 03:50:31;;;;;;;94.90;57.70;;;;;;;-3.73;100.00;99092.16;105291;1302;64415;-85
2022/12/21 03:53:09;;;;;;;89.20;54.20;;;;;;;-3.75;100.00;99091.48;105229;1301;60990;-87
2022/12/21 03:55:39;;;;;;;93.10;52.90;;;;;;;-3.74;100.00;99082.62;105230;1302;63834;-87
2022/12/21 03:58:07;;;;;;;88.20;54.00;;;;;;;-3.73;100.00;99086.25;104879;1297;58935;-86
2022/12/21 04:00:44;;;;;;;97.30;58.20;;;;;;;-3.71;100.00;99089.89;105184;1299;58797;-87
2022/12/21 04:03:21;;;;;;;98.40;57.20;;;;;;;-3.71;100.00;99102.40;105565;1289;66839;-86
2022/12/21 04:06:02;;;;;;;88.80;52.10;;;;;;;-3.72;100.00;99108.13;105571;1296;60865;-85
2022/12/21 04:08:29;;;;;;;95.40;55.50;;;;;;;-3.73;100.00;99100.15;105634;1297;64709;-86
2022/12/21 04:10:57;;;;;;;86.00;50.00;;;;;;;-3.72;100.00;99093.02;105624;1295;58995;-85
2022/12/21 04:13:23;;;;;;;86.90;53.70;;;;;;;-3.71;100.00;99092.48;105640;1296;58929;-85
2022/12/21 04:16:04;;;;;;;99.10;57.30;;;;;;;-3.69;100.00;99093.00;105653;1295;59001;-87
2022/12/21 04:21:17;;;;;;;96.10;55.00;;;;;;;-3.79;100.00;99099.84;105564;1296;63819;-87
2022/12/21 04:29:13;;;;;;;91.40;55.30;;;;;;;-3.96;100.00;99105.70;106178;1281;65852;-85
2022/12/21 04:31:41;;;;;;;91.60;52.90;;;;;;;-4.02;100.00;99104.88;106204;1285;60076;-88
2022/12/21 04:34:07;;;;;;;87.90;53.20;;;;;;;-4.05;100.00;99101.59;106155;1288;64274;-88
2022/12/21 04:39:18;;;;;;;92.60;56.20;;;;;;;-4.04;100.00;99105.74;106075;1291;59005;-87
2022/12/21 04:41:44;;;;;;;87.80;52.00;;;;;;;-4.06;100.00;99111.31;106196;1281;59519;-87
2022/12/21 04:44:10;;;;;;;87.50;50.90;;;;;;;-4.08;100.00;99104.73;105902;1289;59034;-84
2022/12/21 04:46:38;;;;;;;84.20;49.60;;;;;;;-4.11;100.00;99101.98;105984;1292;59001;-85
2022/12/21 04:49:04;;;;;;;78.30;45.80;;;;;;;-4.10;100.00;99102.32;106170;1288;58792;-85
2022/12/21 04:51:30;;;;;;;88.30;51.80;;;;;;;-4.07;100.00;99098.48;106201;1280;58905;-84
2022/12/21 04:53:57;;;;;;;83.50;47.60;;;;;;;-4.04;100.00;99095.69;106184;1278;59057;-85
2022/12/21 04:56:23;;;;;;;86.90;50.20;;;;;;;-3.99;100.00;99085.59;106201;1287;58804;-86
2022/12/21 04:58:49;;;;;;;90.90;52.80;;;;;;;-3.95;100.00;99089.38;105867;1298;59071;-86
2022/12/21 05:01:21;;;;;;;94.80;55.20;;;;;;;-3.93;100.00;99105.33;105208;1293;1002429;-84
2022/12/21 05:03:48;;;;;;;87.10;51.10;;;;;;;-3.94;100.00;99112.27;105922;1295;58812;-84
2022/12/21 05:06:15;;;;;;;84.30;50.20;;;;;;;-3.97;100.00;99113.51;105940;1286;64612;-86
2022/12/21 05:08:42;;;;;;;83.00;48.60;;;;;;;-3.96;100.00;99109.34;105843;1292;59724;-87
2022/12/21 05:11:11;;;;;;;87.50;51.10;;;;;;;-3.91;100.00;99113.64;105846;1287;64190;-87
2022/12/21 05:13:38;;;;;;;85.10;49.80;;;;;;;-3.86;100.00;99111.52;105838;1293;58926;-87
2022/12/21 05:16:07;;;;;;;79.50;47.10;;;;;;;-3.81;100.00;99113.39;105872;1284;58862;-87
2022/12/21 05:18:34;;;;;;;;;;;;;;;-3.75;100.00;99115.09;105881;1293;65803;-87
2022/12/21 05:21:01;;;;;;;82.10;47.50;;;;;;;-3.71;100.00;99116.80;105839;1293;58932;-85
2022/12/21 05:23:27;;;;;;;85.00;48.30;;;;;;;-3.67;100.00;99113.13;105731;1294;63832;-85
2022/12/21 05:25:53;;;;;;;79.60;48.00;;;;;;;-3.63;100.00;99113.09;105850;1287;58953;-86
2022/12/21 05:28:20;;;;;;;82.40;48.90;;;;;;;-3.60;100.00;99105.44;105866;1283;59031;-86
2022/12/21 05:30:46;;;;;;;85.00;48.90;;;;;;;-3.59;100.00;99103.33;106095;1289;58987;-87
2022/12/21 05:33:13;;;;;;;80.10;50.20;;;;;;;-3.60;100.00;99107.34;106187;1288;58954;-85
2022/12/21 05:35:39;;;;;;;76.10;46.80;;;;;;;-3.60;100.00;99110.11;106011;1291;59041;-86
2022/12/21 05:38:06;;;;;;;81.70;47.70;;;;;;;-3.59;100.00;99110.45;106175;1288;58842;-87
2022/12/21 05:40:33;;;;;;;85.80;49.80;;;;;;;-3.57;100.00;99107.84;106183;1288;58898;-86
2022/12/21 05:43:00;;;;;;;82.80;47.00;;;;;;;-3.59;100.00;99104.20;106028;1288;212271;-85
2022/12/21 05:45:26;;;;;;;80.70;47.10;;;;;;;-3.64;100.00;99103.55;106009;1287;59958;-87
2022/12/21 05:47:54;;;;;;;77.70;45.30;;;;;;;-3.68;100.00;99100.61;106162;1289;58827;-86
2022/12/21 05:50:20;;;;;;;81.10;47.60;;;;;;;-3.71;100.00;99099.43;106016;1291;58863;-87
2022/12/21 05:52:47;;;;;;;75.90;47.20;;;;;;;-3.72;100.00;99097.01;106191;1288;58794;-86
2022/12/21 05:55:14;;;;;;;78.10;45.20;;;;;;;-3.75;100.00;99096.69;106146;1287;65985;-86
2022/12/21 05:57:40;;;;;;;80.40;45.60;;;;;;;-3.82;100.00;99099.34;106170;1288;58808;-85
2022/12/21 06:00:08;;;;;;;76.60;44.70;;;;;;;-3.85;100.00;99100.41;106087;1287;64819;-87
2022/12/21 06:02:34;;;;;;;79.60;46.70;;;;;;;-3.84;100.00;99099.36;106094;1290;58920;-87
2022/12/21 06:05:00;;;;;;;82.50;49.10;;;;;;;-3.81;100.00;99089.44;106103;1288;58825;-86
2022/12/21 06:07:26;;;;;;;78.70;45.30;;;;;;;-3.76;100.00;99084.89;106082;1281;59050;-85
2022/12/21 06:09:53;;;;;;;78.80;51.00;;;;;;;-3.72;100.00;99077.74;105951;1283;59157;-86
2022/12/21 06:12:19;;;;;;;100.70;67.00;;;;;;;-3.65;100.00;99070.91;106128;1281;59483;-86
2022/12/21 06:14:45;;;;;;;100.10;64.70;;;;;;;-3.55;100.00;99069.26;106107;1278;60248;-85
2022/12/21 06:17:11;;;;;;;91.20;60.00;;;;;;;-3.45;100.00;99071.61;106091;1288;58827;-87
2022/12/21 06:19:37;;;;;;;93.70;60.30;;;;;;;-3.34;100.00;99069.42;106110;1287;58873;-88
2022/12/21 06:22:03;;;;;;;85.50;51.50;;;;;;;-3.21;100.00;99074.15;105948;1291;58933;-87
2022/12/21 06:24:29;;;;;;;79.70;50.60;;;;;;;-3.13;100.00;99067.47;106059;1288;59043;-85
2022/12/21 06:26:55;;;;;;;91.20;57.30;;;;;;;-3.07;100.00;99067.58;106064;1287;58955;-85
2022/12/21 06:29:21;;;;;;;77.50;48.40;;;;;;;-3.02;100.00;99076.39;105211;1281;1002459;-86
2022/12/21 06:31:48;;;;;;;94.10;54.60;;;;;;;-2.97;100.00;99078.25;106085;1281;59807;-87
2022/12/21 06:34:14;;;;;;;86.90;54.10;;;;;;;-2.93;100.00;99075.25;106073;1282;58909;-87
2022/12/21 06:36:40;;;;;;;88.60;54.00;;;;;;;-2.87;100.00;99071.52;106095;1287;58932;-85
2022/12/21 06:39:06;;;;;;;85.80;55.00;;;;;;;-2.79;100.00;99073.67;106106;1287;58924;-86
2022/12/21 06:41:32;;;;;;;82.30;53.50;;;;;;;-2.70;100.00;99075.31;106097;1290;58904;-87
2022/12/21 06:43:58;;;;;;;87.60;52.80;;;;;;;-2.61;100.00;99079.39;106121;1281;58976;-87
2022/12/21 06:46:26;;;;;;;86.90;54.10;;;;;;;-2.55;100.00;99081.21;106080;1287;59780;-86
2022/12/21 06:48:51;;;;;;;81.40;52.20;;;;;;;-2.45;100.00;99085.60;106090;1282;58928;-86
2022/12/21 06:51:20;;;;;;;79.80;52.70;;;;;;;-2.34;100.00;99070.50;105873;1285;59037;-86
2022/12/21 06:53:50;;;;;;;81.60;53.40;;;;;;;-2.23;100.00;99062.70;106079;1288;67396;-87
2022/12/21 06:56:24;;;;;;;81.30;49.40;;;;;;;-2.11;100.00;99062.52;106107;1288;60815;-86
2022/12/21 06:58:52;;;;;;;80.20;52.30;;;;;;;-2.00;100.00;99061.66;105907;1292;64163;-86
2022/12/21 07:01:31;;;;;;;79.40;53.50;;;;;;;-1.92;100.00;99059.79;105931;1291;59339;-86
2022/12/21 07:03:57;;;;;;;84.70;56.00;;;;;;;-1.82;100.00;99056.15;105795;1290;58891;-87
2022/12/21 07:06:25;;;;;;;87.80;53.90;;;;;;;-1.71;100.00;99049.71;106079;1289;59006;-85
2022/12/21 07:08:53;;;;;;;93.50;57.00;;;;;;;-1.62;100.00;99041.89;105939;1288;60882;-85
2022/12/21 07:11:22;;;;;;;84.50;54.00;;;;;;;-1.52;100.00;99042.42;106052;1287;73111;-86
2022/12/21 07:13:49;;;;;;;86.10;50.50;;;;;;;-1.45;100.00;99046.84;106114;1287;58977;-85
2022/12/21 07:16:16;;;;;;;84.00;51.80;;;;;;;-1.40;100.00;99035.94;106089;1288;58715;-85
2022/12/21 07:18:42;;;;;;;92.60;57.00;;;;;;;-1.35;100.00;99026.95;105963;1292;67086;-85
2022/12/21 07:21:12;;;;;;;89.80;56.80;;;;;;;-1.30;100.00;99028.09;106075;1288;60054;-86
2022/12/21 07:23:40;;;;;;;84.90;54.60;;;;;;;-1.25;100.00;99025.55;105775;1295;65087;-85
2022/12/21 07:26:07;;;;;;;84.50;51.90;;;;;;;-1.22;100.00;99019.92;105960;1287;58975;-85
2022/12/21 07:28:33;;;;;;;93.80;56.10;;;;;;;-1.20;100.00;99016.39;106102;1283;58912;-85
2022/12/21 07:31:05;;;;;;;119.30;79.50;;;;;;;-1.18;100.00;99016.00;106105;1288;66797;-85
2022/12/21 07:33:32;;;;;;;92.00;60.00;;;;;;;-1.14;100.00;99013.48;106116;1287;61274;-85
2022/12/21 07:36:00;;;;;;;107.20;71.20;;;;;;;-1.10;100.00;99014.11;105864;1292;65205;-85
2022/12/21 07:38:27;;;;;;;100.90;67.20;;;;;;;-1.04;100.00;99025.86;105924;1288;58824;-85
2022/12/21 07:41:02;;;;;;;108.80;67.60;;;;;;;-0.99;100.00;99025.40;106112;1287;58960;-85
2022/12/21 07:43:29;;;;;;;101.60;65.50;;;;;;;-0.95;100.00;99021.31;105685;1295;76053;-86
2022/12/21 07:45:57;;;;;;;124.40;78.10;;;;;;;-0.90;100.00;99021.02;106058;1288;60126;-85
2022/12/21 07:48:23;;;;;;;109.90;70.00;;;;;;;-0.82;100.00;99024.18;105881;1285;63953;-85
2022/12/21 07:50:50;;;;;;;107.40;70.00;;;;;;;-0.73;100.00;99034.29;105872;1292;58930;-85
2022/12/21 07:53:17;;;;;;;117.80;71.40;;;;;;;-0.62;100.00;99039.83;105859;1292;58898;-88
2022/12/21 07:55:43;;;;;;;103.00;68.30;;;;;;;-0.52;100.00;99035.60;106137;1287;74510;-86
2022/12/21 07:58:09;;;;;;;108.30;68.80;;;;;;;-0.44;100.00;99033.52;106082;1281;58957;-88
2022/12/21 08:00:37;;;;;;;108.40;68.20;;;;;;;-0.38;100.00;99031.09;106104;1292;59021;-86
2022/12/21 08:03:04;;;;;;;108.50;70.30;;;;;;;-0.32;100.00;99026.27;106070;1287;58935;-87
2022/12/21 08:05:31;;;;;;;101.80;67.00;;;;;;;-0.26;100.00;99032.94;106098;1287;58912;-87
2022/12/21 08:07:58;;;;;;;103.90;67.00;;;;;;;-0.21;100.00;99036.14;106088;1282;58915;-86
2022/12/21 08:10:24;;;;;;;102.20;64.90;;;;;;;-0.17;100.00;99030.61;105885;1294;60799;-86
2022/12/21 08:12:52;;;;;;;113.80;71.70;;;;;;;-0.14;100.00;99027.23;106092;1287;65182;-85
2022/12/21 08:15:18;;;;;;;102.80;67.50;;;;;;;-0.09;100.00;99023.10;106407;1281;58884;-84
2022/12/21 08:17:43;;;;;;;100.00;66.70;;;;;;;0.02;100.00;99019.19;105342;1283;1002289;-87
2022/12/21 08:20:11;;;;;;;108.30;71.40;;;;;;;0.12;100.00;99021.74;106070;1281;58977;-86
2022/12/21 08:22:37;;;;;;;105.60;70.20;;;;;;;0.22;100.00;99022.53;106073;1288;60879;-85
2022/12/21 08:25:03;;;;;;;100.90;67.40;;;;;;;0.31;100.00;99022.51;106075;1287;59291;-85
2022/12/21 08:27:30;;;;;;;96.80;66.70;;;;;;;0.35;100.00;99008.05;106061;1289;59025;-85
2022/12/21 08:29:56;;;;;;;107.60;70.90;;;;;;;0.38;100.00;99001.17;105740;1293;59108;-85
2022/12/21 08:32:22;;;;;;;99.70;68.00;;;;;;;0.42;100.00;99004.56;106095;1288;58904;-85
2022/12/21 08:34:49;;;;;;;102.40;68.20;;;;;;;0.51;100.00;98995.44;106088;1282;58868;-85
2022/12/21 08:37:14;;;;;;;131.00;91.90;;;;;;;0.61;100.00;98991.15;106109;1291;58928;-87
2022/12/21 08:39:40;;;;;;;132.90;93.70;;;;;;;0.71;100.00;98989.29;105912;1291;59002;-85
2022/12/21 08:42:06;;;;;;;132.60;92.10;;;;;;;0.81;100.00;98991.65;105777;1290;59045;-85
2022/12/21 08:44:33;;;;;;;135.00;94.80;;;;;;;0.91;100.00;99002.90;106060;1291;59472;-84
2022/12/21 08:46:59;;;;;;;143.70;97.70;;;;;;;0.99;100.00;99007.40;106100;1282;58888;-85
2022/12/21 08:49:25;;;;;;;126.60;88.10;;;;;;;1.06;100.00;99008.45;105738;1288;59334;-85
2022/12/21 08:51:51;;;;;;;140.60;92.60;;;;;;;1.13;100.00;99008.41;105893;1284;59043;-85
2022/12/21 08:54:17;;;;;;;154.70;102.70;;;;;;;1.18;100.00;99004.42;106051;1288;65776;-85
2022/12/21 08:56:43;;;;;;;127.50;90.40;;;;;;;1.23;100.00;99004.13;106110;1288;59909;-85
2022/12/21 08:59:10;;;;;;;122.30;84.60;;;;;;;1.29;100.00;99009.52;106100;1287;59245;-85
2022/12/21 09:01:36;;;;;;;111.10;79.10;;;;;;;1.38;100.00;99016.27;106101;1281;58958;-84
2022/12/21 09:04:02;;;;;;;116.40;76.40;;;;;;;1.45;100.00;99016.05;106111;1288;58996;-84
2022/12/21 09:06:29;;;;;;;102.80;72.00;;;;;;;1.55;100.00;99013.66;106081;1282;58842;-83
2022/12/21 09:08:56;;;;;;;100.20;72.30;;;;;;;1.64;100.00;99010.58;106099;1289;59000;-84
2022/12/21 09:11:23;;;;;;;100.80;69.60;;;;;;;1.72;100.00;99000.52;106070;1287;58907;-82
2022/12/21 09:13:50;;;;;;;95.20;65.20;;;;;;;1.85;100.00;98999.44;105925;1290;59023;-83
2022/12/21 09:16:22;;;;;;;88.90;60.00;;;;;;;1.90;100.00;99004.91;106068;1287;58901;-82
2022/12/21 09:18:49;;;;;;;87.10;57.40;;;;;;;1.94;100.00;98997.05;105718;1288;64756;-82
2022/12/21 09:21:17;;;;;;;81.50;53.60;;;;;;;2.02;100.00;98997.66;106080;1288;59727;-83
2022/12/21 09:23:43;;;;;;;77.90;51.00;;;;;;;2.11;100.00;98994.21;105899;1290;65125;-82
2022/12/21 09:26:10;;;;;;;77.80;51.50;;;;;;;2.20;100.00;98990.44;105923;1298;59362;-83
2022/12/21 09:28:37;;;;;;;71.70;46.80;;;;;;;2.24;100.00;98990.48;105686;1288;58962;-79
2022/12/21 09:31:15;;;;;;;63.60;43.70;;;;;;;2.25;100.00;98988.33;106068;1294;67314;-80
2022/12/21 09:33:42;;;;;;;62.50;40.30;;;;;;;2.30;100.00;98989.40;106079;1289;61079;-82
2022/12/21 09:36:10;;;;;;;58.60;37.40;;;;;;;2.34;100.00;98990.48;106070;1288;64243;-84
2022/12/21 09:38:36;;;;;;;52.10;33.50;;;;;;;2.39;100.00;98982.41;106056;1288;58891;-82
2022/12/21 09:41:25;;;;;;;56.00;34.90;;;;;;;2.46;100.00;98971.30;106096;1289;59967;-81
2022/12/21 09:44:01;;;;;;;50.50;34.80;;;;;;;2.57;100.00;98971.12;105626;1294;75770;-82
2022/12/21 09:46:28;;;;;;;57.10;37.90;;;;;;;2.63;100.00;98970.70;105624;1295;61117;-82
2022/12/21 09:49:01;;;;;;;49.90;32.10;;;;;;;2.71;100.00;98975.89;105608;1293;65265;-82
2022/12/21 09:51:31;;;;;;;47.70;31.50;;;;;;;2.74;100.00;98977.36;105596;1295;59008;-83
2022/12/21 09:53:59;;;;;;;50.10;30.20;;;;;;;2.77;100.00;98979.02;105510;1298;58801;-82
2022/12/21 09:56:28;;;;;;;46.80;31.00;;;;;;;2.80;100.00;98985.92;105621;1295;67004;-83
2022/12/21 09:58:57;;;;;;;49.40;31.50;;;;;;;2.84;100.00;98982.60;105544;1294;59894;-81
2022/12/21 10:01:42;;;;;;;47.50;30.20;;;;;;;2.91;100.00;98975.17;105625;1300;63872;-83
2022/12/21 10:04:45;;;;;;;47.30;31.10;;;;;;;2.92;100.00;98972.32;105621;1301;59089;-84
2022/12/21 10:07:24;;;;;;;44.60;28.60;;;;;;;2.93;100.00;98970.34;105614;1301;58975;-82
2022/12/21 10:10:12;;;;;;;46.70;30.40;;;;;;;2.94;100.00;98982.79;105609;1295;67199;-83
2022/12/21 10:13:02;;;;;;;42.70;28.80;;;;;;;2.88;100.00;98980.00;105606;1292;59884;-82
2022/12/21 10:15:33;;;;;;;45.80;29.10;;;;;;;2.90;100.00;98987.48;105632;1295;64857;-83
2022/12/21 10:18:21;;;;;;;42.10;27.10;;;;;;;2.88;100.00;98993.88;105593;1295;58912;-83
2022/12/21 10:21:08;;;;;;;40.80;28.30;;;;;;;2.91;100.00;98986.58;105698;1296;58833;-83
2022/12/21 10:23:40;;;;;;;38.10;26.40;;;;;;;2.94;100.00;98981.39;106027;1292;66940;-83
2022/12/21 10:26:13;;;;;;;44.50;30.20;;;;;;;2.96;100.00;98981.11;106098;1281;59796;-83
2022/12/21 10:28:52;;;;;;;45.70;27.30;;;;;;;3.00;100.00;98976.60;106078;1287;65360;-83
2022/12/21 10:31:54;;;;;;;43.40;28.40;;;;;;;3.02;100.00;98979.66;105851;1290;59459;-82
2022/12/21 10:34:29;;;;;;;43.90;28.30;;;;;;;3.00;100.00;98982.54;105577;1298;58763;-84
2022/12/21 10:37:00;;;;;;;42.50;28.30;;;;;;;2.97;100.00;98979.52;105654;1294;65993;-84
2022/12/21 10:39:26;;;;;;;43.40;26.60;;;;;;;2.94;100.00;98975.59;105592;1302;59173;-83
2022/12/21 10:42:07;;;;;;;40.80;27.10;;;;;;;2.91;100.00;98968.48;105627;1295;64892;-83
2022/12/21 10:44:39;;;;;;;41.70;27.40;;;;;;;2.92;100.00;98961.27;104916;1296;1003152;-84
2022/12/21 10:47:13;;;;;;;47.60;30.00;;;;;;;2.98;100.00;98958.27;105615;1293;59041;-85
2022/12/21 10:49:44;;;;;;;42.00;28.10;;;;;;;3.04;100.00;98948.18;105599;1295;66031;-83
2022/12/21 10:52:34;;;;;;;44.20;28.00;;;;;;;3.12;100.00;98945.95;105648;1294;58997;-83
2022/12/21 10:55:00;;;;;;;45.50;29.50;;;;;;;3.18;100.00;98944.88;105606;1294;63830;-83
2022/12/21 10:57:29;;;;;;;46.40;28.90;;;;;;;3.23;100.00;98939.77;105642;1295;59481;-84
2022/12/21 11:00:04;;;;;;;49.90;30.60;;;;;;;3.29;100.00;98938.45;105636;1288;58775;-83
2022/12/21 11:02:39;;;;;;;45.80;30.60;;;;;;;3.34;100.00;98935.14;105700;1294;74742;-84
2022/12/21 11:05:26;;;;;;;44.80;31.80;;;;;;;3.37;100.00;98925.00;105721;1287;59800;-84
2022/12/21 11:07:53;;;;;;;46.40;31.20;;;;;;;3.46;100.00;98918.49;105773;1293;64114;-83
2022/12/21 11:10:27;;;;;;;47.60;31.70;;;;;;;3.56;100.00;98915.48;105989;1285;58859;-83
2022/12/21 11:12:53;;;;;;;48.30;34.10;;;;;;;3.66;100.00;98907.70;106182;1287;58872;-82
2022/12/21 11:15:24;;;;;;;48.90;33.00;;;;;;;3.74;100.00;98904.56;106177;1288;66937;-85
2022/12/21 11:17:51;;;;;;;45.60;32.80;;;;;;;3.82;100.00;98904.77;105820;1290;61139;-81
2022/12/21 11:20:19;;;;;;;48.70;33.10;;;;;;;3.89;100.00;98899.02;106086;1287;58932;-83
2022/12/21 11:22:50;;;;;;;48.00;33.20;;;;;;;3.94;100.00;98897.04;106088;1289;59313;-84
2022/12/21 11:25:18;;;;;;;;;;;;;;;4.01;100.00;98895.20;105913;1289;58915;-82
2022/12/21 11:27:46;;;;;;;44.80;30.20;;;;;;;4.00;100.00;98904.02;106410;1281;64504;-83
2022/12/21 11:30:21;;;;;;;49.60;31.10;;;;;;;3.98;100.00;98900.42;106243;1283;60027;-85